Time;durP1;ratioP1;P1;durP2;ratioP2;P2;SDS_P1;SDS_P2;PMS_P1;PMS_P2;Temp;Humidity;BMP_temperature;BMP_pressure;BME280_temperature;BME280_humidity;BME280_pressure;Samples;Min_cycle;Max_cycle;Signal;HPM_P1;HPM_P2
2023/09/10 00:00:30;;;;;;;20.77;18.60;;;18.30;99.90;;;;;;5118335;27;20055;-74
2023/09/10 00:02:56;;;;;;;22.33;19.98;;;18.30;99.90;;;;;;5103260;27;20046;-74
2023/09/10 00:05:22;;;;;;;22.27;19.88;;;18.30;99.90;;;;;;5135889;27;20842;-74
2023/09/10 00:07:47;;;;;;;21.95;19.45;;;18.30;99.90;;;;;;5139726;27;20074;-74
2023/09/10 00:10:13;;;;;;;26.23;23.48;;;18.30;99.90;;;;;;5129048;27;20047;-74
2023/09/10 00:12:40;;;;;;;22.15;19.63;;;18.20;99.90;;;;;;5141960;27;20077;-74
2023/09/10 00:15:07;;;;;;;19.65;17.60;;;18.20;99.90;;;;;;5136164;27;20237;-74
2023/09/10 00:17:32;;;;;;;22.52;18.80;;;18.10;99.90;;;;;;5137672;27;20538;-74
2023/09/10 00:19:59;;;;;;;23.00;20.58;;;18.20;99.90;;;;;;5121520;27;20039;-74
2023/09/10 00:22:24;;;;;;;19.30;17.35;;;18.10;99.90;;;;;;5135980;27;20054;-74
2023/09/10 00:24:50;;;;;;;18.40;16.48;;;18.10;99.90;;;;;;5132416;27;20061;-74
2023/09/10 00:27:16;;;;;;;21.58;19.25;;;18.10;99.90;;;;;;5124112;27;20127;-74
2023/09/10 00:29:41;;;;;;;25.42;22.45;;;18.10;99.90;;;;;;5141451;27;20082;-74
2023/09/10 00:32:07;;;;;;;19.98;17.13;;;18.10;99.90;;;;;;5138961;27;20053;-74
2023/09/10 00:34:33;;;;;;;20.48;18.02;;;18.10;99.90;;;;;;5128572;27;20063;-75
2023/09/10 00:37:00;;;;;;;23.05;20.55;;;18.10;99.90;;;;;;5140513;27;20655;-75
2023/09/10 00:39:25;;;;;;;24.27;21.20;;;18.00;99.90;;;;;;5141646;27;20070;-74
2023/09/10 00:41:53;;;;;;;19.88;17.88;;;18.10;99.90;;;;;;5121677;27;20057;-75
2023/09/10 00:44:23;;;;;;;21.25;18.92;;;18.00;99.90;;;;;;5141433;27;20050;-74
2023/09/10 00:46:50;;;;;;;18.88;17.02;;;18.00;99.90;;;;;;5142289;27;20335;-74
2023/09/10 00:49:16;;;;;;;20.48;18.38;;;18.00;99.90;;;;;;5144387;27;20055;-74
2023/09/10 00:51:43;;;;;;;24.85;21.92;;;18.00;99.90;;;;;;5142884;27;20043;-74
2023/09/10 00:54:09;;;;;;;23.00;20.60;;;17.90;99.90;;;;;;5144461;27;20051;-74
2023/09/10 00:56:35;;;;;;;27.92;24.75;;;17.90;99.90;;;;;;5127891;27;20043;-74
2023/09/10 00:59:01;;;;;;;22.17;19.98;;;17.80;99.90;;;;;;5141917;27;20123;-74
2023/09/10 01:01:28;;;;;;;21.17;19.13;;;17.70;99.90;;;;;;5114381;27;20134;-74
2023/09/10 01:03:54;;;;;;;21.25;19.10;;;17.70;99.90;;;;;;5139951;27;20042;-74
2023/09/10 01:06:21;;;;;;;22.42;20.13;;;17.70;99.90;;;;;;5136971;27;20783;-74
2023/09/10 01:08:48;;;;;;;21.17;18.92;;;17.70;99.90;;;;;;5146025;27;20123;-74
2023/09/10 01:11:29;;;;;;;24.10;21.73;;;17.60;99.90;;;;;;5143295;27;20050;-74
2023/09/10 01:14:05;;;;;;;24.23;21.67;;;17.60;99.90;;;;;;5125613;27;20067;-74
2023/09/10 01:16:42;;;;;;;23.48;21.15;;;17.60;99.90;;;;;;5125035;27;20069;-74
2023/09/10 01:19:24;;;;;;;20.10;18.10;;;17.60;99.90;;;;;;5137300;27;20057;-74
2023/09/10 01:22:05;;;;;;;21.27;19.08;;;17.50;99.90;;;;;;5125969;27;20075;-74
2023/09/10 01:24:39;;;;;;;20.85;18.73;;;17.50;99.90;;;;;;5138705;27;20043;-74
2023/09/10 01:27:05;;;;;;;21.48;18.77;;;17.50;99.90;;;;;;5126120;27;20516;-74
2023/09/10 01:29:31;;;;;;;22.13;20.00;;;17.50;99.90;;;;;;5133250;27;20046;-74
2023/09/10 01:32:04;;;;;;;21.05;18.73;;;17.50;99.90;;;;;;5132283;27;20074;-75
2023/09/10 01:34:39;;;;;;;19.98;17.83;;;17.50;99.90;;;;;;5144142;27;20066;-76
2023/09/10 01:37:15;;;;;;;22.90;20.50;;;17.50;99.90;;;;;;5123760;27;20051;-74
2023/09/10 01:39:43;;;;;;;21.67;19.40;;;17.50;99.90;;;;;;5145164;27;20236;-74
2023/09/10 01:42:10;;;;;;;24.73;21.85;;;17.40;99.90;;;;;;5124078;27;20054;-74
2023/09/10 01:44:37;;;;;;;22.27;19.88;;;17.40;99.90;;;;;;5143792;27;20051;-74
2023/09/10 01:47:03;;;;;;;22.33;19.38;;;17.40;99.90;;;;;;5143549;27;20043;-74
2023/09/10 01:49:30;;;;;;;22.48;20.27;;;17.30;99.90;;;;;;5144185;27;20057;-74
2023/09/10 01:51:56;;;;;;;20.92;18.77;;;17.40;99.90;;;;;;5141708;27;20042;-74
2023/09/10 01:54:21;;;;;;;19.58;17.63;;;17.40;99.90;;;;;;5142619;27;20099;-74
2023/09/10 01:56:47;;;;;;;22.05;19.58;;;17.40;99.90;;;;;;5124389;27;20594;-74
2023/09/10 01:59:13;;;;;;;20.75;18.30;;;17.30;99.90;;;;;;5113965;27;20079;-74
2023/09/10 02:01:38;;;;;;;20.35;18.13;;;17.30;99.90;;;;;;5141346;27;20046;-74
2023/09/10 02:04:04;;;;;;;19.95;17.90;;;17.30;99.90;;;;;;5142406;27;20079;-74
2023/09/10 02:06:30;;;;;;;19.08;17.27;;;17.20;99.90;;;;;;5127895;27;20107;-74
2023/09/10 02:08:56;;;;;;;18.67;15.98;;;17.20;99.90;;;;;;5142073;27;20038;-74
2023/09/10 02:11:21;;;;;;;22.98;20.42;;;17.10;99.90;;;;;;5141849;27;20039;-74
2023/09/10 02:13:47;;;;;;;21.60;19.00;;;17.10;99.90;;;;;;5141463;27;20098;-74
2023/09/10 02:16:13;;;;;;;24.73;22.23;;;17.10;99.90;;;;;;5120810;27;20054;-74
2023/09/10 02:18:38;;;;;;;24.90;22.40;;;17.10;99.90;;;;;;5112753;27;20050;-74
2023/09/10 02:21:13;;;;;;;24.08;19.65;;;17.10;99.90;;;;;;5117767;27;20135;-74
2023/09/10 02:23:44;;;;;;;20.85;18.75;;;17.10;99.90;;;;;;5135756;27;20054;-74
2023/09/10 02:26:10;;;;;;;19.50;17.50;;;17.00;99.90;;;;;;5122262;27;20522;-74
2023/09/10 02:28:35;;;;;;;18.17;16.27;;;17.00;99.90;;;;;;5107087;27;20051;-74
2023/09/10 02:31:06;;;;;;;19.33;17.38;;;17.00;99.90;;;;;;5118659;27;20154;-74
2023/09/10 02:33:32;;;;;;;21.23;18.52;;;17.10;99.90;;;;;;5124173;27;20128;-74
2023/09/10 02:35:58;;;;;;;22.73;16.35;;;17.00;99.90;;;;;;5144408;27;20055;-74
2023/09/10 02:38:24;;;;;;;19.73;17.73;;;17.00;99.90;;;;;;5129749;27;20686;-74
2023/09/10 02:40:51;;;;;;;19.48;17.60;;;17.00;99.90;;;;;;5135291;27;20046;-74
2023/09/10 02:43:17;;;;;;;26.27;23.52;;;17.00;99.90;;;;;;5121026;27;20503;-74
2023/09/10 02:45:42;;;;;;;21.00;18.88;;;17.00;99.90;;;;;;5130980;27;20039;-74
2023/09/10 02:48:08;;;;;;;20.98;18.80;;;16.90;99.90;;;;;;5110103;27;20483;-74
2023/09/10 02:50:34;;;;;;;21.33;18.55;;;17.00;99.90;;;;;;5131143;27;20117;-74
2023/09/10 02:53:00;;;;;;;27.70;24.70;;;16.90;99.90;;;;;;5140598;27;20050;-74
2023/09/10 02:55:25;;;;;;;26.20;23.13;;;16.90;99.90;;;;;;5091399;27;20491;-74
2023/09/10 02:57:51;;;;;;;25.40;22.67;;;16.90;99.90;;;;;;5142185;27;20049;-74
2023/09/10 03:00:19;;;;;;;28.00;24.13;;;16.90;99.90;;;;;;5122108;27;20057;-74
2023/09/10 03:02:45;;;;;;;26.80;23.55;;;16.90;99.90;;;;;;5115739;27;20115;-74
2023/09/10 03:05:11;;;;;;;27.77;24.90;;;16.90;99.90;;;;;;5125912;27;20495;-74
2023/09/10 03:07:36;;;;;;;31.08;25.60;;;16.80;99.90;;;;;;5121648;27;20058;-74
2023/09/10 03:10:02;;;;;;;29.85;26.67;;;16.80;99.90;;;;;;5119209;27;20560;-74
2023/09/10 03:12:29;;;;;;;24.17;20.58;;;16.80;99.90;;;;;;5136630;27;20047;-74
2023/09/10 03:14:55;;;;;;;37.17;30.38;;;16.80;99.90;;;;;;5130009;27;20046;-74
2023/09/10 03:17:21;;;;;;;24.30;21.40;;;16.70;99.90;;;;;;5127005;27;20051;-74
2023/09/10 03:19:47;;;;;;;31.58;27.48;;;16.70;99.90;;;;;;5112522;27;20150;-74
2023/09/10 03:22:13;;;;;;;34.50;27.13;;;16.70;99.90;;;;;;5126833;27;20165;-74
2023/09/10 03:24:39;;;;;;;35.20;27.67;;;16.70;99.90;;;;;;5131255;27;20233;-74
2023/09/10 03:27:05;;;;;;;35.75;30.67;;;16.70;99.90;;;;;;5138933;27;20042;-74
2023/09/10 03:29:37;;;;;;;32.45;28.33;;;16.70;99.90;;;;;;5127829;27;20058;-74
2023/09/10 03:32:06;;;;;;;37.85;28.95;;;16.60;99.90;;;;;;5132241;27;20130;-74
2023/09/10 03:34:31;;;;;;;31.08;26.63;;;16.70;99.90;;;;;;5113352;27;20047;-74
2023/09/10 03:36:58;;;;;;;31.38;26.60;;;16.60;99.90;;;;;;5133054;27;20054;-74
2023/09/10 03:39:24;;;;;;;29.90;26.00;;;16.60;99.90;;;;;;5132205;27;20130;-74
2023/09/10 03:41:51;;;;;;;27.48;24.50;;;16.60;99.90;;;;;;5138326;27;20049;-74
2023/09/10 03:44:18;;;;;;;35.72;29.05;;;16.60;99.90;;;;;;5130575;27;20909;-74
2023/09/10 03:46:43;;;;;;;30.20;26.23;;;16.60;99.90;;;;;;5139447;27;20380;-74
2023/09/10 03:49:09;;;;;;;31.80;27.25;;;16.60;99.90;;;;;;5135844;27;20114;-74
2023/09/10 03:51:35;;;;;;;31.20;24.75;;;16.60;99.90;;;;;;5142704;27;20570;-74
2023/09/10 03:54:00;;;;;;;31.38;25.45;;;16.20;99.90;;;;;;5121402;27;20506;-74
2023/09/10 03:56:26;;;;;;;24.75;22.20;;;16.60;99.90;;;;;;5122870;27;20133;-74
2023/09/10 03:58:52;;;;;;;27.80;23.35;;;16.70;99.90;;;;;;5141466;27;20054;-74
2023/09/10 04:01:17;;;;;;;26.38;21.38;;;16.70;99.90;;;;;;5141354;27;20058;-74
2023/09/10 04:03:43;;;;;;;23.42;20.92;;;16.60;99.90;;;;;;5139794;27;20046;-74
2023/09/10 04:06:09;;;;;;;26.13;22.95;;;16.60;99.90;;;;;;5109870;27;20039;-74
2023/09/10 04:08:34;;;;;;;26.65;21.33;;;16.50;99.90;;;;;;5142488;27;20057;-74
2023/09/10 04:11:00;;;;;;;27.20;23.88;;;16.50;99.90;;;;;;5136073;27;20047;-74
2023/09/10 04:13:26;;;;;;;23.65;20.73;;;16.50;99.90;;;;;;5103037;28;20157;-74
2023/09/10 04:15:51;;;;;;;23.83;20.55;;;16.50;99.90;;;;;;5116844;28;20039;-74
2023/09/10 04:18:17;;;;;;;23.45;20.88;;;16.50;99.90;;;;;;5115269;27;20046;-74
2023/09/10 04:20:43;;;;;;;26.08;21.88;;;16.50;99.90;;;;;;5136108;27;20051;-74
2023/09/10 04:23:08;;;;;;;24.23;21.02;;;16.50;99.90;;;;;;5137585;27;20069;-74
2023/09/10 04:25:35;;;;;;;21.58;19.20;;;16.50;99.90;;;;;;5127619;27;20046;-74
2023/09/10 04:28:01;;;;;;;31.33;26.67;;;16.50;99.90;;;;;;5108851;27;20062;-74
2023/09/10 04:30:26;;;;;;;28.05;23.48;;;16.50;99.90;;;;;;5113686;27;20046;-74
2023/09/10 04:32:52;;;;;;;29.27;24.95;;;16.50;99.90;;;;;;5135843;27;20055;-74
2023/09/10 04:35:18;;;;;;;29.85;26.30;;;16.40;99.90;;;;;;5134070;27;20058;-74
2023/09/10 04:37:43;;;;;;;28.95;24.35;;;16.40;99.90;;;;;;5145828;27;20774;-74
2023/09/10 04:40:10;;;;;;;28.05;23.13;;;16.40;99.90;;;;;;5142168;27;20130;-74
2023/09/10 04:42:35;;;;;;;28.20;23.77;;;16.30;99.90;;;;;;5138819;27;20112;-75
2023/09/10 04:45:03;;;;;;;26.80;22.98;;;16.30;99.90;;;;;;5134166;27;20047;-74
2023/09/10 04:47:29;;;;;;;27.77;24.65;;;16.30;99.90;;;;;;5145475;27;20050;-74
2023/09/10 04:49:55;;;;;;;28.08;23.10;;;16.30;99.90;;;;;;5132901;27;20115;-74
2023/09/10 04:52:20;;;;;;;26.25;22.30;;;16.30;99.90;;;;;;5143290;27;20544;-74
2023/09/10 04:54:46;;;;;;;30.40;26.15;;;16.30;99.90;;;;;;5138378;27;20987;-74
2023/09/10 04:57:12;;;;;;;27.13;22.92;;;16.30;99.90;;;;;;5144327;27;20053;-74
2023/09/10 04:59:38;;;;;;;26.05;22.77;;;16.20;99.90;;;;;;5131952;27;20050;-74
2023/09/10 05:02:07;;;;;;;23.70;20.90;;;16.30;99.90;;;;;;5122479;27;20054;-74
2023/09/10 05:04:32;;;;;;;23.63;21.15;;;16.20;99.90;;;;;;5113451;27;20094;-74
2023/09/10 05:06:58;;;;;;;28.45;24.48;;;16.20;99.90;;;;;;5099773;27;20157;-74
2023/09/10 05:09:24;;;;;;;25.77;22.85;;;16.30;99.90;;;;;;5133700;27;20050;-74
2023/09/10 05:11:50;;;;;;;29.08;23.60;;;16.20;99.90;;;;;;5141566;27;20034;-75
2023/09/10 05:14:19;;;;;;;24.83;20.92;;;16.20;99.90;;;;;;5143839;27;20045;-74
2023/09/10 05:16:44;;;;;;;24.77;21.33;;;16.30;99.90;;;;;;5135538;27;20045;-74
2023/09/10 05:19:10;;;;;;;23.33;20.83;;;16.20;99.90;;;;;;5134830;27;20052;-74
2023/09/10 05:21:36;;;;;;;24.33;20.98;;;16.30;99.90;;;;;;5139354;27;20043;-73
2023/09/10 05:24:01;;;;;;;20.95;18.80;;;16.30;99.90;;;;;;5139024;27;20050;-74
2023/09/10 05:26:27;;;;;;;18.55;16.65;;;16.40;99.90;;;;;;5131863;27;20047;-74
2023/09/10 05:28:53;;;;;;;20.48;18.35;;;16.40;99.90;;;;;;5133481;27;20499;-74
2023/09/10 05:31:19;;;;;;;21.75;19.40;;;16.40;99.90;;;;;;5145059;27;20117;-73
2023/09/10 05:33:45;;;;;;;25.75;20.50;;;16.40;99.90;;;;;;5143491;27;20860;-74
2023/09/10 05:36:10;;;;;;;20.65;18.02;;;16.40;99.90;;;;;;5135858;27;20062;-74
2023/09/10 05:38:36;;;;;;;23.27;19.95;;;16.40;99.90;;;;;;5136144;27;20410;-74
2023/09/10 05:41:03;;;;;;;23.05;20.52;;;16.40;99.90;;;;;;5141980;27;20485;-74
2023/09/10 05:43:30;;;;;;;36.75;26.33;;;16.50;99.90;;;;;;5117284;27;20039;-74
2023/09/10 05:45:56;;;;;;;31.88;26.77;;;16.50;99.90;;;;;;5136254;27;20071;-73
2023/09/10 05:48:22;;;;;;;25.25;21.73;;;16.50;99.90;;;;;;5141241;27;20079;-74
2023/09/10 05:50:48;;;;;;;25.95;21.67;;;16.60;99.90;;;;;;5101270;27;20055;-74
2023/09/10 05:53:14;;;;;;;24.27;20.67;;;16.60;99.90;;;;;;5140888;27;20057;-74
2023/09/10 05:55:41;;;;;;;26.67;21.83;;;16.70;99.90;;;;;;5130987;27;20043;-74
2023/09/10 05:58:07;;;;;;;26.52;23.58;;;16.80;99.90;;;;;;5124242;27;20479;-74
2023/09/10 06:00:33;;;;;;;23.63;21.20;;;16.80;99.90;;;;;;5133342;27;20562;-74
2023/09/10 06:02:59;;;;;;;25.83;21.73;;;16.90;99.90;;;;;;5142547;27;20043;-74
2023/09/10 06:05:24;;;;;;;23.45;18.92;;;16.90;99.90;;;;;;5139525;27;20107;-74
2023/09/10 06:07:50;;;;;;;24.58;20.85;;;17.00;99.90;;;;;;5141544;27;20117;-74
2023/09/10 06:10:16;;;;;;;23.38;20.55;;;17.10;99.90;;;;;;5143129;27;20051;-73
2023/09/10 06:12:43;;;;;;;29.27;25.67;;;17.10;99.90;;;;;;5138454;27;20531;-74
2023/09/10 06:15:08;;;;;;;29.88;23.90;;;17.20;99.90;;;;;;5135121;27;20093;-74
2023/09/10 06:17:35;;;;;;;29.63;25.27;;;17.30;99.90;;;;;;5135691;27;20420;-73
2023/09/10 06:20:02;;;;;;;31.60;26.58;;;17.40;99.90;;;;;;5144003;27;20069;-74
2023/09/10 06:22:28;;;;;;;30.30;27.10;;;17.50;99.90;;;;;;5136284;27;20050;-74
2023/09/10 06:24:54;;;;;;;29.98;26.73;;;17.50;99.90;;;;;;5125082;27;20106;-74
2023/09/10 06:27:20;;;;;;;26.02;23.35;;;17.50;99.90;;;;;;5142154;27;20281;-74
2023/09/10 06:29:46;;;;;;;27.45;24.38;;;17.50;99.90;;;;;;5143052;27;20043;-73
2023/09/10 06:32:12;;;;;;;35.67;31.92;;;17.60;99.90;;;;;;5118606;27;20031;-74
2023/09/10 06:34:38;;;;;;;32.67;29.23;;;17.60;99.90;;;;;;5121521;27;20055;-73
2023/09/10 06:37:05;;;;;;;34.63;31.00;;;17.60;99.90;;;;;;5133991;27;20102;-73
2023/09/10 06:39:38;;;;;;;34.70;30.20;;;17.70;99.90;;;;;;5140559;27;20563;-74
2023/09/10 06:42:07;;;;;;;37.53;33.47;;;17.80;99.90;;;;;;5121547;27;20093;-74
2023/09/10 06:44:33;;;;;;;35.70;31.90;;;17.80;99.90;;;;;;5137487;27;20086;-74
2023/09/10 06:47:00;;;;;;;40.15;34.97;;;17.90;99.90;;;;;;5141071;27;20122;-74
2023/09/10 06:49:26;;;;;;;43.92;39.30;;;18.00;99.90;;;;;;5130226;27;20570;-73
2023/09/10 06:51:52;;;;;;;38.90;34.40;;;18.10;99.90;;;;;;5140130;27;20053;-73
2023/09/10 06:54:18;;;;;;;40.70;36.50;;;18.10;99.90;;;;;;5142957;27;20050;-74
2023/09/10 06:56:43;;;;;;;37.42;33.22;;;18.30;99.90;;;;;;5137984;27;20074;-74
2023/09/10 06:59:09;;;;;;;36.90;33.10;;;18.40;99.90;;;;;;5123430;27;20073;-74
2023/09/10 07:01:38;;;;;;;35.13;31.33;;;18.50;99.90;;;;;;5118996;27;20085;-73
2023/09/10 07:04:18;;;;;;;36.72;32.50;;;18.60;99.90;;;;;;5138433;27;20085;-74
2023/09/10 07:06:49;;;;;;;34.08;30.15;;;18.10;99.90;;;;;;5112570;27;20062;-74
2023/09/10 07:09:22;;;;;;;32.53;29.23;;;18.90;99.90;;;;;;5137217;27;20070;-74
2023/09/10 07:11:52;;;;;;;35.08;31.33;;;19.00;99.90;;;;;;5123920;27;20115;-74
2023/09/10 07:14:19;;;;;;;32.60;29.20;;;19.20;99.90;;;;;;5138097;27;20084;-74
2023/09/10 07:16:46;;;;;;;34.97;31.27;;;19.30;99.90;;;;;;5130575;27;20050;-74
2023/09/10 07:19:12;;;;;;;37.15;32.97;;;19.50;99.90;;;;;;5126092;27;20047;-74
2023/09/10 07:21:38;;;;;;;34.50;30.92;;;19.60;99.90;;;;;;5110486;27;20062;-74
2023/09/10 07:24:06;;;;;;;34.40;30.70;;;19.80;99.90;;;;;;5135811;27;21066;-74
2023/09/10 07:26:39;;;;;;;35.95;29.35;;;20.10;99.90;;;;;;5142433;27;20129;-75
2023/09/10 07:29:05;;;;;;;33.90;30.05;;;21.00;99.90;;;;;;5140962;27;20050;-75
2023/09/10 07:31:33;;;;;;;32.75;27.30;;;22.00;99.90;;;;;;5094144;27;20574;-74
2023/09/10 07:34:00;;;;;;;30.83;27.58;;;22.90;99.90;;;;;;5107656;27;20081;-74
2023/09/10 07:36:26;;;;;;;30.70;27.20;;;23.80;99.90;;;;;;5122010;27;20522;-75
2023/09/10 07:38:52;;;;;;;28.38;25.38;;;24.50;99.90;;;;;;5120151;27;20047;-74
2023/09/10 07:41:18;;;;;;;25.50;22.90;;;25.30;99.90;;;;;;5117071;27;20621;-75
2023/09/10 07:43:43;;;;;;;26.92;23.85;;;26.00;99.90;;;;;;5119232;27;20114;-74
2023/09/10 07:46:09;;;;;;;23.75;21.35;;;26.70;99.90;;;;;;5116415;27;20130;-74
2023/09/10 07:48:35;;;;;;;25.38;22.60;;;27.20;99.90;;;;;;5137623;27;20045;-75
2023/09/10 07:51:01;;;;;;;21.73;19.42;;;27.60;99.90;;;;;;5133162;27;20095;-75
2023/09/10 07:53:26;;;;;;;24.50;21.92;;;28.10;99.90;;;;;;5134265;27;20145;-75
2023/09/10 07:55:52;;;;;;;23.80;21.35;;;28.20;99.90;;;;;;5135223;27;20051;-75
2023/09/10 07:58:18;;;;;;;22.15;19.85;;;28.60;99.90;;;;;;5137869;27;20051;-75
2023/09/10 08:00:44;;;;;;;22.90;20.52;;;28.80;99.90;;;;;;5133147;27;20039;-75
2023/09/10 08:03:11;;;;;;;23.88;21.52;;;29.10;99.90;;;;;;5119463;27;20039;-75
2023/09/10 08:05:37;;;;;;;23.95;21.40;;;29.60;99.90;;;;;;5113228;27;20046;-75
2023/09/10 08:08:03;;;;;;;22.90;20.50;;;29.60;99.90;;;;;;5126627;27;20554;-76
2023/09/10 08:10:29;;;;;;;24.08;20.20;;;30.10;99.90;;;;;;5139541;27;20046;-76
2023/09/10 08:12:55;;;;;;;22.13;19.88;;;30.20;99.50;;;;;;5132692;27;20042;-74
2023/09/10 08:15:21;;;;;;;21.33;19.08;;;30.60;99.00;;;;;;5134270;27;20049;-75
2023/09/10 08:17:49;;;;;;;21.38;19.23;;;30.90;98.30;;;;;;5140468;27;20046;-75
2023/09/10 08:20:15;;;;;;;21.33;19.10;;;31.20;97.90;;;;;;5140192;27;20053;-76
2023/09/10 08:22:43;;;;;;;18.00;16.02;;;31.60;97.30;;;;;;5113832;27;20047;-76
2023/09/10 08:25:09;;;;;;;19.73;17.70;;;31.70;96.60;;;;;;5112928;27;20053;-76
2023/09/10 08:27:37;;;;;;;20.20;18.08;;;31.80;96.40;;;;;;5086277;28;20051;-75
2023/09/10 08:30:05;;;;;;;20.73;17.38;;;32.00;96.30;;;;;;5110141;27;20064;-75
2023/09/10 08:32:32;;;;;;;18.88;16.67;;;32.20;96.10;;;;;;5122209;27;20047;-72
2023/09/10 08:34:58;;;;;;;19.75;17.65;;;32.50;95.40;;;;;;5131785;27;20580;-72
2023/09/10 08:37:24;;;;;;;19.80;17.65;;;32.60;95.10;;;;;;5119303;27;20050;-74
2023/09/10 08:39:50;;;;;;;18.98;17.10;;;32.70;94.90;;;;;;5115677;27;20043;-75
2023/09/10 08:42:25;;;;;;;20.15;17.98;;;32.80;94.80;;;;;;5141915;27;20107;-73
2023/09/10 08:44:56;;;;;;;18.25;16.45;;;33.00;94.50;;;;;;5123015;27;20124;-74
2023/09/10 08:47:24;;;;;;;16.30;14.75;;;32.80;94.00;;;;;;5104259;27;20058;-72
2023/09/10 08:49:55;;;;;;;16.95;15.18;;;32.80;93.90;;;;;;5103740;28;20742;-75
2023/09/10 08:52:22;;;;;;;17.27;15.32;;;32.90;93.70;;;;;;5114348;27;20050;-73
2023/09/10 08:54:48;;;;;;;16.10;14.50;;;33.00;93.50;;;;;;5089062;27;20070;-73
2023/09/10 08:57:15;;;;;;;15.27;13.68;;;33.00;93.40;;;;;;5120316;27;20050;-73
2023/09/10 08:59:42;;;;;;;15.02;13.43;;;33.30;92.90;;;;;;5117749;27;20396;-73
2023/09/10 09:02:10;;;;;;;15.30;13.68;;;33.30;92.40;;;;;;5130551;27;20051;-76
2023/09/10 09:04:36;;;;;;;14.98;13.38;;;33.40;92.20;;;;;;5110155;28;20217;-75
2023/09/10 09:07:03;;;;;;;11.35;10.20;;;33.00;92.20;;;;;;5128894;27;20054;-73
2023/09/10 09:09:39;;;;;;;12.00;10.90;;;33.10;91.70;;;;;;5133183;27;20137;-76
2023/09/10 09:12:08;;;;;;;11.63;10.43;;;33.30;90.70;;;;;;5110347;27;20780;-73
2023/09/10 09:14:36;;;;;;;10.25;8.65;;;33.40;91.40;;;;;;5132019;27;20447;-72
2023/09/10 09:17:05;;;;;;;9.48;8.57;;;33.50;90.90;;;;;;5113195;27;20130;-72
2023/09/10 09:19:35;;;;;;;8.95;7.10;;;33.40;90.50;;;;;;5140891;27;20069;-75
2023/09/10 09:22:04;;;;;;;7.38;6.68;;;33.60;90.00;;;;;;5137335;27;20127;-73
2023/09/10 09:24:31;;;;;;;7.05;6.30;;;33.60;89.90;;;;;;5126639;27;20049;-73
2023/09/10 09:27:00;;;;;;;7.28;6.05;;;33.90;89.40;;;;;;5143814;27;20050;-77
2023/09/10 09:29:28;;;;;;;6.40;5.75;;;34.10;88.00;;;;;;5133606;27;20504;-75
2023/09/10 09:31:54;;;;;;;7.03;5.43;;;34.10;87.00;;;;;;5140475;27;20039;-75
2023/09/10 09:34:19;;;;;;;8.23;6.22;;;34.00;87.10;;;;;;5127733;27;20098;-75
2023/09/10 09:36:50;;;;;;;6.45;5.70;;;34.00;87.40;;;;;;5139885;27;20593;-76
2023/09/10 09:39:17;;;;;;;9.27;6.30;;;34.20;86.70;;;;;;5143483;27;20083;-76
2023/09/10 09:41:50;;;;;;;11.63;7.68;;;34.20;86.60;;;;;;5133630;27;20042;-76
2023/09/10 09:44:15;;;;;;;;;;;34.10;87.00;;;;;;5132527;27;20043;-75
2023/09/10 09:46:41;;;;;;;7.72;7.03;;;33.60;86.70;;;;;;5109001;27;20039;-76
2023/09/10 09:49:07;;;;;;;7.43;6.72;;;33.70;88.80;;;;;;5135433;27;20069;-75
2023/09/10 09:51:33;;;;;;;8.52;7.57;;;33.90;88.30;;;;;;5138079;27;20530;-76
2023/09/10 09:54:00;;;;;;;9.43;7.40;;;34.00;88.00;;;;;;5132841;27;20051;-76
2023/09/10 09:56:25;;;;;;;9.25;8.30;;;34.00;88.00;;;;;;5133741;27;20046;-75
2023/09/10 09:58:57;;;;;;;8.80;7.90;;;34.20;88.40;;;;;;5121626;27;20049;-76
2023/09/10 10:01:22;;;;;;;9.70;7.20;;;34.30;87.50;;;;;;5121598;27;20055;-75
2023/09/10 10:03:49;;;;;;;9.18;8.05;;;34.40;88.20;;;;;;5138995;27;20106;-76
2023/09/10 10:06:16;;;;;;;7.78;6.90;;;34.80;88.00;;;;;;5107616;27;20548;-76
2023/09/10 10:08:48;;;;;;;9.98;8.23;;;34.80;87.70;;;;;;5140962;27;20122;-77
2023/09/10 10:11:16;;;;;;;8.85;7.93;;;35.10;87.00;;;;;;5120932;27;20048;-74
2023/09/10 10:13:42;;;;;;;11.45;8.65;;;35.30;87.00;;;;;;5142590;27;20044;-74
2023/09/10 10:16:09;;;;;;;11.27;9.32;;;35.00;86.50;;;;;;5136220;27;20051;-74
2023/09/10 10:18:35;;;;;;;9.82;8.52;;;35.00;86.80;;;;;;5130913;27;20051;-74
2023/09/10 10:21:03;;;;;;;9.25;8.32;;;35.00;86.40;;;;;;5136177;27;20054;-74
2023/09/10 10:23:29;;;;;;;8.70;7.88;;;35.10;86.40;;;;;;5113478;27;20062;-73
2023/09/10 10:25:58;;;;;;;10.50;9.43;;;35.30;86.40;;;;;;5127303;27;20039;-75
2023/09/10 10:28:25;;;;;;;12.02;9.77;;;35.50;85.90;;;;;;5119308;27;20354;-74
2023/09/10 10:31:02;;;;;;;15.32;10.00;;;35.60;85.70;;;;;;5125077;27;20499;-74
2023/09/10 10:33:30;;;;;;;12.27;9.55;;;35.70;85.30;;;;;;5139961;27;20139;-74
2023/09/10 10:36:07;;;;;;;8.85;7.80;;;35.60;85.00;;;;;;5133719;27;20042;-74
2023/09/10 10:38:36;;;;;;;11.35;9.63;;;35.80;85.40;;;;;;5120660;27;20995;-74
2023/09/10 10:41:14;;;;;;;10.50;9.50;;;35.70;85.30;;;;;;5108439;27;20054;-74
2023/09/10 10:43:45;;;;;;;10.55;9.23;;;35.50;85.00;;;;;;5121432;27;20099;-74
2023/09/10 10:46:12;;;;;;;10.43;8.83;;;35.00;85.60;;;;;;5133038;27;20043;-74
2023/09/10 10:48:39;;;;;;;12.02;9.00;;;34.30;86.60;;;;;;5121106;27;20055;-73
2023/09/10 10:51:09;;;;;;;11.02;9.95;;;33.30;87.40;;;;;;5134288;27;20051;-74
2023/09/10 10:53:35;;;;;;;11.73;8.70;;;32.40;88.60;;;;;;5127800;27;20077;-75
2023/09/10 10:56:04;;;;;;;11.82;10.00;;;31.60;89.90;;;;;;5109659;27;20055;-72
2023/09/10 10:58:31;;;;;;;10.57;9.55;;;31.20;90.20;;;;;;5114532;27;20046;-75
2023/09/10 11:00:58;;;;;;;12.13;9.77;;;30.70;90.30;;;;;;5131287;27;20046;-76
2023/09/10 11:03:25;;;;;;;11.98;9.98;;;30.40;90.80;;;;;;5124978;27;20042;-75
2023/09/10 11:05:54;;;;;;;10.35;8.98;;;30.00;91.10;;;;;;5084988;27;20058;-75
2023/09/10 11:08:26;;;;;;;10.82;8.48;;;29.80;91.40;;;;;;5129126;27;20207;-75
2023/09/10 11:10:52;;;;;;;;;;;29.60;91.80;;;;;;5132795;27;20050;-75
2023/09/10 11:13:18;;;;;;;10.60;9.57;;;29.50;92.40;;;;;;5137304;27;19926;-75
2023/09/10 11:16:07;;;;;;;12.88;10.70;;;29.40;92.10;;;;;;5136483;27;20047;-75
2023/09/10 11:18:36;;;;;;;12.05;10.00;;;29.30;92.00;;;;;;5100313;27;20839;-74
2023/09/10 11:21:03;;;;;;;11.45;10.27;;;29.20;92.00;;;;;;5139513;27;20588;-75
2023/09/10 11:23:29;;;;;;;10.60;9.60;;;29.20;92.20;;;;;;5142201;27;20062;-75
2023/09/10 11:26:14;;;;;;;11.23;10.20;;;29.10;92.20;;;;;;5128571;27;20046;-76
2023/09/10 11:28:43;;;;;;;13.07;10.63;;;29.10;92.40;;;;;;5120302;27;20153;-75
2023/09/10 11:31:33;;;;;;;13.10;10.48;;;29.10;92.70;;;;;;5112660;27;20043;-75
2023/09/10 11:34:18;;;;;;;13.60;10.32;;;29.10;92.80;;;;;;5138616;27;20713;-75
2023/09/10 11:36:44;;;;;;;13.63;10.57;;;29.10;93.00;;;;;;5129450;27;20051;-74
2023/09/10 11:39:11;;;;;;;12.52;10.38;;;29.00;92.90;;;;;;5123360;27;20064;-75
2023/09/10 11:41:37;;;;;;;14.30;10.80;;;29.00;93.20;;;;;;5131754;27;20085;-75
2023/09/10 11:44:03;;;;;;;11.98;10.68;;;28.90;93.10;;;;;;5121921;27;20456;-75
2023/09/10 11:46:28;;;;;;;16.83;10.90;;;28.90;93.20;;;;;;5120339;27;20517;-75
2023/09/10 11:48:54;;;;;;;13.88;10.82;;;28.70;93.60;;;;;;5139203;27;20049;-75
2023/09/10 11:51:20;;;;;;;12.65;11.50;;;28.70;93.70;;;;;;5141055;27;20038;-76
2023/09/10 11:53:46;;;;;;;12.63;10.02;;;28.80;93.80;;;;;;5132627;27;20043;-76
2023/09/10 11:56:12;;;;;;;12.48;9.75;;;29.00;93.80;;;;;;5135578;27;20042;-76
2023/09/10 11:58:38;;;;;;;10.85;9.75;;;29.00;93.90;;;;;;5136755;27;20039;-74
2023/09/10 12:01:04;;;;;;;12.85;10.10;;;29.10;93.70;;;;;;5134823;27;20054;-75
2023/09/10 12:03:32;;;;;;;11.98;10.55;;;29.20;94.00;;;;;;5128987;27;20046;-75
2023/09/10 12:05:58;;;;;;;11.90;9.82;;;29.30;93.90;;;;;;5134560;27;20050;-75
2023/09/10 12:08:24;;;;;;;10.57;9.48;;;29.40;93.90;;;;;;5134752;27;20070;-75
2023/09/10 12:10:53;;;;;;;10.63;9.52;;;29.50;94.00;;;;;;5117275;27;20139;-74
2023/09/10 12:13:19;;;;;;;12.18;10.95;;;29.50;93.90;;;;;;5134470;27;20053;-75
2023/09/10 12:15:45;;;;;;;14.30;10.68;;;29.50;93.70;;;;;;5135323;27;20046;-73
2023/09/10 12:18:11;;;;;;;14.10;10.73;;;29.40;93.70;;;;;;5117102;27;20509;-75
2023/09/10 12:20:37;;;;;;;11.00;9.65;;;29.50;93.80;;;;;;5118235;27;20058;-76
2023/09/10 12:23:04;;;;;;;12.25;9.07;;;29.50;93.90;;;;;;5134394;27;20050;-76
2023/09/10 12:25:30;;;;;;;13.77;9.52;;;29.70;94.10;;;;;;5134422;27;20055;-75
2023/09/10 12:27:56;;;;;;;11.45;8.77;;;29.70;93.70;;;;;;5115146;27;20074;-75
2023/09/10 12:30:23;;;;;;;13.27;9.50;;;30.30;93.80;;;;;;5117395;27;20065;-75